sensor_id;sensor_type;location;lat;lon;timestamp;temperature;humidity
35593;DHT22;64447;52.140;5.602;2023-11-21T00:00:14;10.90;99.90
35593;DHT22;64447;52.140;5.602;2023-11-21T00:02:40;10.80;99.90
35593;DHT22;64447;52.140;5.602;2023-11-21T00:05:10;10.90;99.90
35593;DHT22;64447;52.140;5.602;2023-11-21T00:07:37;10.80;99.90
35593;DHT22;64447;52.140;5.602;2023-11-21T00:10:03;10.90;99.90
35593;DHT22;64447;52.140;5.602;2023-11-21T00:12:33;10.80;99.90
35593;DHT22;64447;52.140;5.602;2023-11-21T00:14:59;10.80;99.90
35593;DHT22;64447;52.140;5.602;2023-11-21T00:17:25;10.80;99.90
35593;DHT22;64447;52.140;5.602;2023-11-21T00:19:51;10.70;99.90
35593;DHT22;64447;52.140;5.602;2023-11-21T00:22:20;10.70;99.90
35593;DHT22;64447;52.140;5.602;2023-11-21T00:24:46;10.70;99.90
35593;DHT22;64447;52.140;5.602;2023-11-21T00:27:12;10.70;99.90
35593;DHT22;64447;52.140;5.602;2023-11-21T00:29:37;10.70;99.90
35593;DHT22;64447;52.140;5.602;2023-11-21T00:32:05;10.60;99.90
35593;DHT22;64447;52.140;5.602;2023-11-21T00:34:31;10.60;99.90
35593;DHT22;64447;52.140;5.602;2023-11-21T00:36:57;10.60;99.90
35593;DHT22;64447;52.140;5.602;2023-11-21T00:39:22;10.50;99.90
35593;DHT22;64447;52.140;5.602;2023-11-21T00:41:49;10.60;99.90
35593;DHT22;64447;52.140;5.602;2023-11-21T00:44:14;10.50;99.90
35593;DHT22;64447;52.140;5.602;2023-11-21T00:46:41;10.50;99.90
35593;DHT22;64447;52.140;5.602;2023-11-21T00:49:07;10.60;99.90
35593;DHT22;64447;52.140;5.602;2023-11-21T00:51:33;10.50;99.90
35593;DHT22;64447;52.140;5.602;2023-11-21T00:53:59;10.60;99.90
35593;DHT22;64447;52.140;5.602;2023-11-21T00:56:24;10.50;99.90
35593;DHT22;64447;52.140;5.602;2023-11-21T00:58:50;10.60;99.90
35593;DHT22;64447;52.140;5.602;2023-11-21T01:01:21;10.60;99.90
35593;DHT22;64447;52.140;5.602;2023-11-21T01:03:49;10.60;99.90
35593;DHT22;64447;52.140;5.602;2023-11-21T01:06:16;10.50;99.90
35593;DHT22;64447;52.140;5.602;2023-11-21T01:08:41;10.50;99.90
35593;DHT22;64447;52.140;5.602;2023-11-21T01:11:07;10.50;99.90
35593;DHT22;64447;52.140;5.602;2023-11-21T01:13:41;10.50;99.90
35593;DHT22;64447;52.140;5.602;2023-11-21T01:16:08;10.50;99.90
35593;DHT22;64447;52.140;5.602;2023-11-21T01:18:35;10.60;99.90
35593;DHT22;64447;52.140;5.602;2023-11-21T01:21:01;10.50;99.90
35593;DHT22;64447;52.140;5.602;2023-11-21T01:23:27;10.50;99.90
35593;DHT22;64447;52.140;5.602;2023-11-21T01:25:53;10.50;99.90
35593;DHT22;64447;52.140;5.602;2023-11-21T01:28:18;10.70;99.90
35593;DHT22;64447;52.140;5.602;2023-11-21T01:30:45;10.60;99.90
35593;DHT22;64447;52.140;5.602;2023-11-21T01:33:11;10.60;99.90
35593;DHT22;64447;52.140;5.602;2023-11-21T01:35:37;10.60;99.90
35593;DHT22;64447;52.140;5.602;2023-11-21T01:38:02;10.60;99.90
35593;DHT22;64447;52.140;5.602;2023-11-21T01:40:29;10.60;99.90
35593;DHT22;64447;52.140;5.602;2023-11-21T01:42:56;10.60;99.90
35593;DHT22;64447;52.140;5.602;2023-11-21T01:45:22;10.60;99.90
35593;DHT22;64447;52.140;5.602;2023-11-21T01:47:50;10.60;99.90
35593;DHT22;64447;52.140;5.602;2023-11-21T01:50:16;10.60;99.90
35593;DHT22;64447;52.140;5.602;2023-11-21T01:52:45;10.60;99.90
35593;DHT22;64447;52.140;5.602;2023-11-21T01:55:11;10.60;99.90
35593;DHT22;64447;52.140;5.602;2023-11-21T01:57:38;10.70;99.90
35593;DHT22;64447;52.140;5.602;2023-11-21T02:00:04;10.70;99.90
35593;DHT22;64447;52.140;5.602;2023-11-21T02:02:44;10.60;99.90
35593;DHT22;64447;52.140;5.602;2023-11-21T02:05:15;10.70;99.90
35593;DHT22;64447;52.140;5.602;2023-11-21T02:07:41;10.60;99.90
35593;DHT22;64447;52.140;5.602;2023-11-21T02:10:09;10.70;99.90
35593;DHT22;64447;52.140;5.602;2023-11-21T02:12:35;10.60;99.90
35593;DHT22;64447;52.140;5.602;2023-11-21T02:15:04;10.80;99.90
35593;DHT22;64447;52.140;5.602;2023-11-21T02:17:37;10.50;99.90
35593;DHT22;64447;52.140;5.602;2023-11-21T02:20:03;10.60;99.90
35593;DHT22;64447;52.140;5.602;2023-11-21T02:22:34;10.60;99.90
35593;DHT22;64447;52.140;5.602;2023-11-21T02:25:03;10.60;99.90
35593;DHT22;64447;52.140;5.602;2023-11-21T02:27:29;10.70;99.90
35593;DHT22;64447;52.140;5.602;2023-11-21T02:29:54;10.70;99.90
35593;DHT22;64447;52.140;5.602;2023-11-21T02:32:20;10.70;99.90
35593;DHT22;64447;52.140;5.602;2023-11-21T02:34:48;10.70;99.90
35593;DHT22;64447;52.140;5.602;2023-11-21T02:37:14;10.70;99.90
35593;DHT22;64447;52.140;5.602;2023-11-21T02:39:39;10.70;99.90
35593;DHT22;64447;52.140;5.602;2023-11-21T02:42:05;10.70;99.90
35593;DHT22;64447;52.140;5.602;2023-11-21T02:44:31;10.70;99.90
35593;DHT22;64447;52.140;5.602;2023-11-21T02:46:56;10.60;99.90
35593;DHT22;64447;52.140;5.602;2023-11-21T02:49:23;10.50;99.90
35593;DHT22;64447;52.140;5.602;2023-11-21T02:51:49;10.50;99.90
35593;DHT22;64447;52.140;5.602;2023-11-21T02:54:14;10.50;99.90
35593;DHT22;64447;52.140;5.602;2023-11-21T02:56:42;10.60;99.90
35593;DHT22;64447;52.140;5.602;2023-11-21T02:59:08;10.50;99.90
35593;DHT22;64447;52.140;5.602;2023-11-21T03:01:34;10.40;99.90
35593;DHT22;64447;52.140;5.602;2023-11-21T03:03:59;10.40;99.90
35593;DHT22;64447;52.140;5.602;2023-11-21T03:06:25;10.50;99.90
35593;DHT22;64447;52.140;5.602;2023-11-21T03:08:51;10.50;99.90
35593;DHT22;64447;52.140;5.602;2023-11-21T03:11:17;10.40;99.90
35593;DHT22;64447;52.140;5.602;2023-11-21T03:13:42;10.50;99.90
35593;DHT22;64447;52.140;5.602;2023-11-21T03:16:09;10.50;99.90
35593;DHT22;64447;52.140;5.602;2023-11-21T03:18:34;10.70;99.90
35593;DHT22;64447;52.140;5.602;2023-11-21T03:21:00;10.60;99.90
35593;DHT22;64447;52.140;5.602;2023-11-21T03:23:26;10.60;99.90
35593;DHT22;64447;52.140;5.602;2023-11-21T03:25:51;10.60;99.90
35593;DHT22;64447;52.140;5.602;2023-11-21T03:28:17;10.70;99.90
35593;DHT22;64447;52.140;5.602;2023-11-21T03:30:43;10.60;99.90
35593;DHT22;64447;52.140;5.602;2023-11-21T03:33:08;10.60;99.90
35593;DHT22;64447;52.140;5.602;2023-11-21T03:35:34;10.60;99.90
35593;DHT22;64447;52.140;5.602;2023-11-21T03:38:00;10.70;99.90
35593;DHT22;64447;52.140;5.602;2023-11-21T03:40:26;10.60;99.90
35593;DHT22;64447;52.140;5.602;2023-11-21T03:42:51;10.50;99.90
35593;DHT22;64447;52.140;5.602;2023-11-21T03:45:17;10.60;99.90
35593;DHT22;64447;52.140;5.602;2023-11-21T03:47:43;10.60;99.90
35593;DHT22;64447;52.140;5.602;2023-11-21T03:50:09;10.60;99.90
35593;DHT22;64447;52.140;5.602;2023-11-21T03:52:35;10.50;99.90
35593;DHT22;64447;52.140;5.602;2023-11-21T03:55:03;10.60;99.90
35593;DHT22;64447;52.140;5.602;2023-11-21T03:57:29;10.50;99.90
35593;DHT22;64447;52.140;5.602;2023-11-21T03:59:55;10.50;99.90
35593;DHT22;64447;52.140;5.602;2023-11-21T04:02:20;10.30;99.90
35593;DHT22;64447;52.140;5.602;2023-11-21T04:04:46;10.10;99.90
35593;DHT22;64447;52.140;5.602;2023-11-21T04:07:12;10.30;99.90
35593;DHT22;64447;52.140;5.602;2023-11-21T04:09:39;10.40;99.90
35593;DHT22;64447;52.140;5.602;2023-11-21T04:12:05;10.50;99.90
35593;DHT22;64447;52.140;5.602;2023-11-21T04:14:32;10.60;99.90
35593;DHT22;64447;52.140;5.602;2023-11-21T04:16:58;10.60;99.90
35593;DHT22;64447;52.140;5.602;2023-11-21T04:19:23;10.60;99.90
35593;DHT22;64447;52.140;5.602;2023-11-21T04:21:49;10.60;99.90
35593;DHT22;64447;52.140;5.602;2023-11-21T04:24:15;10.70;99.90
35593;DHT22;64447;52.140;5.602;2023-11-21T04:26:41;10.60;99.90
35593;DHT22;64447;52.140;5.602;2023-11-21T04:29:07;10.70;99.90
35593;DHT22;64447;52.140;5.602;2023-11-21T04:31:32;10.80;99.90
35593;DHT22;64447;52.140;5.602;2023-11-21T04:33:58;10.70;99.90
35593;DHT22;64447;52.140;5.602;2023-11-21T04:36:24;10.70;99.90
35593;DHT22;64447;52.140;5.602;2023-11-21T04:38:49;10.80;99.90
35593;DHT22;64447;52.140;5.602;2023-11-21T04:41:15;10.80;99.90
35593;DHT22;64447;52.140;5.602;2023-11-21T04:43:40;10.90;99.90
35593;DHT22;64447;52.140;5.602;2023-11-21T04:46:07;10.60;99.90
35593;DHT22;64447;52.140;5.602;2023-11-21T04:48:34;10.60;99.90
35593;DHT22;64447;52.140;5.602;2023-11-21T04:50:59;10.60;99.90
35593;DHT22;64447;52.140;5.602;2023-11-21T04:53:25;10.80;99.90
35593;DHT22;64447;52.140;5.602;2023-11-21T04:55:50;10.70;99.90
35593;DHT22;64447;52.140;5.602;2023-11-21T04:58:16;10.70;99.90
35593;DHT22;64447;52.140;5.602;2023-11-21T05:00:42;10.70;99.90
35593;DHT22;64447;52.140;5.602;2023-11-21T05:03:08;10.60;99.90
35593;DHT22;64447;52.140;5.602;2023-11-21T05:05:33;10.70;99.90
35593;DHT22;64447;52.140;5.602;2023-11-21T05:08:02;10.50;99.90
35593;DHT22;64447;52.140;5.602;2023-11-21T05:10:28;10.50;99.90
35593;DHT22;64447;52.140;5.602;2023-11-21T05:12:54;10.40;99.90
35593;DHT22;64447;52.140;5.602;2023-11-21T05:15:21;10.40;99.90
35593;DHT22;64447;52.140;5.602;2023-11-21T05:17:46;10.40;99.90
35593;DHT22;64447;52.140;5.602;2023-11-21T05:20:16;10.40;99.90
35593;DHT22;64447;52.140;5.602;2023-11-21T05:22:49;10.50;99.90
35593;DHT22;64447;52.140;5.602;2023-11-21T05:25:16;10.50;99.90
35593;DHT22;64447;52.140;5.602;2023-11-21T05:27:44;10.50;99.90
35593;DHT22;64447;52.140;5.602;2023-11-21T05:30:10;10.60;99.90
35593;DHT22;64447;52.140;5.602;2023-11-21T05:32:38;10.60;99.90
35593;DHT22;64447;52.140;5.602;2023-11-21T05:35:04;10.80;99.90
35593;DHT22;64447;52.140;5.602;2023-11-21T05:37:37;10.80;99.90
35593;DHT22;64447;52.140;5.602;2023-11-21T05:40:06;10.90;99.90
35593;DHT22;64447;52.140;5.602;2023-11-21T05:42:35;10.90;99.90
35593;DHT22;64447;52.140;5.602;2023-11-21T05:45:02;11.00;99.90
35593;DHT22;64447;52.140;5.602;2023-11-21T05:47:41;11.00;99.90
35593;DHT22;64447;52.140;5.602;2023-11-21T05:50:08;11.20;99.90
35593;DHT22;64447;52.140;5.602;2023-11-21T05:52:38;11.10;99.90
35593;DHT22;64447;52.140;5.602;2023-11-21T05:55:05;11.10;99.90
35593;DHT22;64447;52.140;5.602;2023-11-21T05:57:35;11.00;99.90
35593;DHT22;64447;52.140;5.602;2023-11-21T06:00:10;11.00;99.90
35593;DHT22;64447;52.140;5.602;2023-11-21T06:02:39;10.90;99.90
35593;DHT22;64447;52.140;5.602;2023-11-21T06:05:08;10.90;99.90
35593;DHT22;64447;52.140;5.602;2023-11-21T06:07:34;11.30;99.90
35593;DHT22;64447;52.140;5.602;2023-11-21T06:10:02;10.90;99.90
35593;DHT22;64447;52.140;5.602;2023-11-21T06:12:31;10.50;99.90
35593;DHT22;64447;52.140;5.602;2023-11-21T06:15:03;10.60;99.90
35593;DHT22;64447;52.140;5.602;2023-11-21T06:17:39;10.30;99.90
35593;DHT22;64447;52.140;5.602;2023-11-21T06:20:06;10.30;99.90
35593;DHT22;64447;52.140;5.602;2023-11-21T06:22:37;10.30;99.90
35593;DHT22;64447;52.140;5.602;2023-11-21T06:25:03;10.40;99.90
35593;DHT22;64447;52.140;5.602;2023-11-21T06:27:42;10.50;99.90
35593;DHT22;64447;52.140;5.602;2023-11-21T06:30:08;10.00;99.90
35593;DHT22;64447;52.140;5.602;2023-11-21T06:32:36;10.70;99.90
35593;DHT22;64447;52.140;5.602;2023-11-21T06:35:05;9.80;99.90
35593;DHT22;64447;52.140;5.602;2023-11-21T06:37:32;10.80;99.90
35593;DHT22;64447;52.140;5.602;2023-11-21T06:39:59;9.40;99.90
35593;DHT22;64447;52.140;5.602;2023-11-21T06:42:25;10.50;99.90
35593;DHT22;64447;52.140;5.602;2023-11-21T06:44:51;9.80;99.90
35593;DHT22;64447;52.140;5.602;2023-11-21T06:47:18;10.50;99.90
35593;DHT22;64447;52.140;5.602;2023-11-21T06:49:45;9.90;99.90
35593;DHT22;64447;52.140;5.602;2023-11-21T06:52:13;10.40;99.90
35593;DHT22;64447;52.140;5.602;2023-11-21T06:54:39;10.30;99.90
35593;DHT22;64447;52.140;5.602;2023-11-21T06:57:05;9.70;99.90
35593;DHT22;64447;52.140;5.602;2023-11-21T06:59:31;8.80;99.90
35593;DHT22;64447;52.140;5.602;2023-11-21T07:01:56;10.60;99.90
35593;DHT22;64447;52.140;5.602;2023-11-21T07:04:22;10.00;99.90
35593;DHT22;64447;52.140;5.602;2023-11-21T07:06:48;10.10;99.90
35593;DHT22;64447;52.140;5.602;2023-11-21T07:09:13;9.20;99.90
35593;DHT22;64447;52.140;5.602;2023-11-21T07:11:39;9.80;99.90
35593;DHT22;64447;52.140;5.602;2023-11-21T07:14:05;10.30;99.90
35593;DHT22;64447;52.140;5.602;2023-11-21T07:16:34;10.60;99.90
35593;DHT22;64447;52.140;5.602;2023-11-21T07:19:06;10.80;99.90
35593;DHT22;64447;52.140;5.602;2023-11-21T07:21:35;10.60;99.90
35593;DHT22;64447;52.140;5.602;2023-11-21T07:24:02;10.80;99.90
35593;DHT22;64447;52.140;5.602;2023-11-21T07:26:28;10.80;99.90
35593;DHT22;64447;52.140;5.602;2023-11-21T07:28:54;10.80;99.90
35593;DHT22;64447;52.140;5.602;2023-11-21T07:31:20;10.90;99.90
35593;DHT22;64447;52.140;5.602;2023-11-21T07:33:46;10.30;99.90
35593;DHT22;64447;52.140;5.602;2023-11-21T07:36:15;11.10;99.90
35593;DHT22;64447;52.140;5.602;2023-11-21T07:38:42;11.60;99.90
35593;DHT22;64447;52.140;5.602;2023-11-21T07:41:08;10.30;99.90
35593;DHT22;64447;52.140;5.602;2023-11-21T07:43:35;10.70;99.90
35593;DHT22;64447;52.140;5.602;2023-11-21T07:46:01;10.80;99.90
35593;DHT22;64447;52.140;5.602;2023-11-21T07:48:31;10.90;99.90
35593;DHT22;64447;52.140;5.602;2023-11-21T07:50:57;10.60;99.90
35593;DHT22;64447;52.140;5.602;2023-11-21T07:53:27;10.80;99.90
35593;DHT22;64447;52.140;5.602;2023-11-21T07:55:54;11.00;99.90
35593;DHT22;64447;52.140;5.602;2023-11-21T07:58:20;11.60;99.90
35593;DHT22;64447;52.140;5.602;2023-11-21T08:00:46;11.20;99.90
35593;DHT22;64447;52.140;5.602;2023-11-21T08:03:13;11.30;99.90
35593;DHT22;64447;52.140;5.602;2023-11-21T08:05:39;11.40;99.90
35593;DHT22;64447;52.140;5.602;2023-11-21T08:08:05;11.60;99.90
35593;DHT22;64447;52.140;5.602;2023-11-21T08:10:30;11.40;99.90
35593;DHT22;64447;52.140;5.602;2023-11-21T08:12:56;11.40;99.90
35593;DHT22;64447;52.140;5.602;2023-11-21T08:15:22;11.50;99.90
35593;DHT22;64447;52.140;5.602;2023-11-21T08:17:47;11.40;99.90
35593;DHT22;64447;52.140;5.602;2023-11-21T08:20:14;11.40;99.90
35593;DHT22;64447;52.140;5.602;2023-11-21T08:22:42;10.70;99.90
35593;DHT22;64447;52.140;5.602;2023-11-21T08:25:08;11.40;99.90
35593;DHT22;64447;52.140;5.602;2023-11-21T08:27:34;10.30;99.90
35593;DHT22;64447;52.140;5.602;2023-11-21T08:30:03;11.70;99.90
35593;DHT22;64447;52.140;5.602;2023-11-21T08:32:29;11.60;99.90
35593;DHT22;64447;52.140;5.602;2023-11-21T08:34:57;11.50;99.90
35593;DHT22;64447;52.140;5.602;2023-11-21T08:37:23;11.30;99.90
35593;DHT22;64447;52.140;5.602;2023-11-21T08:39:49;11.40;99.90
35593;DHT22;64447;52.140;5.602;2023-11-21T08:42:15;11.30;99.90
35593;DHT22;64447;52.140;5.602;2023-11-21T08:44:41;11.30;99.90
35593;DHT22;64447;52.140;5.602;2023-11-21T08:47:07;11.20;99.90
35593;DHT22;64447;52.140;5.602;2023-11-21T08:49:32;11.30;99.90
35593;DHT22;64447;52.140;5.602;2023-11-21T08:51:58;11.30;99.90
35593;DHT22;64447;52.140;5.602;2023-11-21T08:54:25;11.40;99.90
35593;DHT22;64447;52.140;5.602;2023-11-21T08:56:52;11.40;99.90
35593;DHT22;64447;52.140;5.602;2023-11-21T08:59:18;11.40;99.90
35593;DHT22;64447;52.140;5.602;2023-11-21T09:01:45;11.50;99.90
35593;DHT22;64447;52.140;5.602;2023-11-21T09:04:12;11.50;99.90
35593;DHT22;64447;52.140;5.602;2023-11-21T09:06:39;11.50;99.90
35593;DHT22;64447;52.140;5.602;2023-11-21T09:09:05;11.20;99.90
35593;DHT22;64447;52.140;5.602;2023-11-21T09:11:32;11.40;99.90
35593;DHT22;64447;52.140;5.602;2023-11-21T09:13:59;11.40;99.90
35593;DHT22;64447;52.140;5.602;2023-11-21T09:16:25;11.40;99.90
35593;DHT22;64447;52.140;5.602;2023-11-21T09:18:51;11.40;99.90
35593;DHT22;64447;52.140;5.602;2023-11-21T09:21:16;11.30;99.90
35593;DHT22;64447;52.140;5.602;2023-11-21T09:23:44;11.10;99.90
35593;DHT22;64447;52.140;5.602;2023-11-21T09:26:10;11.10;99.90
35593;DHT22;64447;52.140;5.602;2023-11-21T09:28:36;11.00;99.90
35593;DHT22;64447;52.140;5.602;2023-11-21T09:31:08;11.00;99.90
35593;DHT22;64447;52.140;5.602;2023-11-21T09:33:35;11.20;99.90
35593;DHT22;64447;52.140;5.602;2023-11-21T09:36:00;11.10;99.90
35593;DHT22;64447;52.140;5.602;2023-11-21T09:38:26;11.30;99.90
35593;DHT22;64447;52.140;5.602;2023-11-21T09:40:54;11.20;99.90
35593;DHT22;64447;52.140;5.602;2023-11-21T09:43:20;11.20;99.90
35593;DHT22;64447;52.140;5.602;2023-11-21T09:45:51;11.20;99.90
35593;DHT22;64447;52.140;5.602;2023-11-21T09:48:20;11.40;99.90
35593;DHT22;64447;52.140;5.602;2023-11-21T09:50:47;11.40;99.90
35593;DHT22;64447;52.140;5.602;2023-11-21T09:53:15;11.40;99.90
35593;DHT22;64447;52.140;5.602;2023-11-21T09:55:45;11.30;99.90
35593;DHT22;64447;52.140;5.602;2023-11-21T09:58:13;11.20;99.90
35593;DHT22;64447;52.140;5.602;2023-11-21T10:00:50;11.00;99.90
35593;DHT22;64447;52.140;5.602;2023-11-21T10:03:18;11.20;99.90
35593;DHT22;64447;52.140;5.602;2023-11-21T10:05:44;11.10;99.90
35593;DHT22;64447;52.140;5.602;2023-11-21T10:08:13;11.10;99.90
35593;DHT22;64447;52.140;5.602;2023-11-21T10:10:46;11.10;99.90
35593;DHT22;64447;52.140;5.602;2023-11-21T10:13:13;11.90;99.90
35593;DHT22;64447;52.140;5.602;2023-11-21T10:15:42;10.90;99.90
35593;DHT22;64447;52.140;5.602;2023-11-21T10:18:13;10.90;99.90
35593;DHT22;64447;52.140;5.602;2023-11-21T10:20:40;10.80;99.90
35593;DHT22;64447;52.140;5.602;2023-11-21T10:23:07;10.70;99.90
35593;DHT22;64447;52.140;5.602;2023-11-21T10:25:37;10.60;99.90
35593;DHT22;64447;52.140;5.602;2023-11-21T10:28:03;10.70;99.90
35593;DHT22;64447;52.140;5.602;2023-11-21T10:30:34;10.80;99.90
35593;DHT22;64447;52.140;5.602;2023-11-21T10:33:03;10.90;99.90
35593;DHT22;64447;52.140;5.602;2023-11-21T10:35:47;11.00;99.90
35593;DHT22;64447;52.140;5.602;2023-11-21T10:38:19;11.10;99.90
35593;DHT22;64447;52.140;5.602;2023-11-21T10:40:50;11.10;99.90
35593;DHT22;64447;52.140;5.602;2023-11-21T10:43:24;11.10;99.90
35593;DHT22;64447;52.140;5.602;2023-11-21T10:45:50;11.30;99.90
35593;DHT22;64447;52.140;5.602;2023-11-21T10:48:16;11.30;99.90
35593;DHT22;64447;52.140;5.602;2023-11-21T10:50:43;11.30;99.90
35593;DHT22;64447;52.140;5.602;2023-11-21T10:53:09;11.50;99.90
35593;DHT22;64447;52.140;5.602;2023-11-21T10:55:37;11.40;99.90
35593;DHT22;64447;52.140;5.602;2023-11-21T10:58:04;11.60;99.90
35593;DHT22;64447;52.140;5.602;2023-11-21T11:00:32;11.30;99.90
35593;DHT22;64447;52.140;5.602;2023-11-21T11:02:59;10.90;99.90
35593;DHT22;64447;52.140;5.602;2023-11-21T11:05:27;11.00;99.90
35593;DHT22;64447;52.140;5.602;2023-11-21T11:08:08;10.60;99.90
35593;DHT22;64447;52.140;5.602;2023-11-21T11:10:34;11.00;99.90
35593;DHT22;64447;52.140;5.602;2023-11-21T11:13:00;11.00;99.90
35593;DHT22;64447;52.140;5.602;2023-11-21T11:15:27;11.00;99.90
35593;DHT22;64447;52.140;5.602;2023-11-21T11:17:54;11.00;99.90
35593;DHT22;64447;52.140;5.602;2023-11-21T11:20:24;11.00;99.90
35593;DHT22;64447;52.140;5.602;2023-11-21T11:26:22;11.30;99.90
35593;DHT22;64447;52.140;5.602;2023-11-21T11:36:55;10.90;99.90
35593;DHT22;64447;52.140;5.602;2023-11-21T11:41:57;10.80;99.90
35593;DHT22;64447;52.140;5.602;2023-11-21T11:47:15;10.80;99.90
35593;DHT22;64447;52.140;5.602;2023-11-21T11:52:35;11.00;99.90
35593;DHT22;64447;52.140;5.602;2023-11-21T11:55:02;11.00;99.90
35593;DHT22;64447;52.140;5.602;2023-11-21T11:57:31;11.10;99.90
35593;DHT22;64447;52.140;5.602;2023-11-21T12:02:53;11.00;99.90
35593;DHT22;64447;52.140;5.602;2023-11-21T12:05:20;11.10;99.90
35593;DHT22;64447;52.140;5.602;2023-11-21T12:10:17;11.20;99.90
35593;DHT22;64447;52.140;5.602;2023-11-21T12:12:47;11.00;99.90
35593;DHT22;64447;52.140;5.602;2023-11-21T12:15:13;11.20;99.90
35593;DHT22;64447;52.140;5.602;2023-11-21T12:17:43;11.20;99.90
35593;DHT22;64447;52.140;5.602;2023-11-21T12:20:09;11.10;99.90
35593;DHT22;64447;52.140;5.602;2023-11-21T12:22:53;11.10;99.90
35593;DHT22;64447;52.140;5.602;2023-11-21T12:25:26;11.10;99.90
35593;DHT22;64447;52.140;5.602;2023-11-21T12:27:57;11.00;99.90
35593;DHT22;64447;52.140;5.602;2023-11-21T12:30:31;11.10;99.90
35593;DHT22;64447;52.140;5.602;2023-11-21T12:32:58;11.20;99.90
35593;DHT22;64447;52.140;5.602;2023-11-21T12:35:29;11.10;99.90
35593;DHT22;64447;52.140;5.602;2023-11-21T12:37:56;11.00;99.90
35593;DHT22;64447;52.140;5.602;2023-11-21T12:40:25;10.90;99.90
35593;DHT22;64447;52.140;5.602;2023-11-21T12:42:56;10.70;99.90
35593;DHT22;64447;52.140;5.602;2023-11-21T12:45:23;10.80;99.90
35593;DHT22;64447;52.140;5.602;2023-11-21T12:48:03;10.80;99.90
35593;DHT22;64447;52.140;5.602;2023-11-21T12:50:33;10.90;99.90
35593;DHT22;64447;52.140;5.602;2023-11-21T12:53:02;11.00;99.90
35593;DHT22;64447;52.140;5.602;2023-11-21T12:55:33;11.20;99.90
35593;DHT22;64447;52.140;5.602;2023-11-21T12:58:02;11.20;99.90
35593;DHT22;64447;52.140;5.602;2023-11-21T13:00:43;11.00;99.90
35593;DHT22;64447;52.140;5.602;2023-11-21T13:03:11;10.90;99.90
35593;DHT22;64447;52.140;5.602;2023-11-21T13:05:46;11.00;99.90
35593;DHT22;64447;52.140;5.602;2023-11-21T13:08:14;11.00;99.90
35593;DHT22;64447;52.140;5.602;2023-11-21T13:10:44;11.10;99.90
35593;DHT22;64447;52.140;5.602;2023-11-21T13:13:13;11.10;99.90
35593;DHT22;64447;52.140;5.602;2023-11-21T13:15:51;11.40;99.90
35593;DHT22;64447;52.140;5.602;2023-11-21T13:18:18;11.00;99.90
35593;DHT22;64447;52.140;5.602;2023-11-21T13:20:44;11.00;99.90
35593;DHT22;64447;52.140;5.602;2023-11-21T13:23:10;11.10;99.90
35593;DHT22;64447;52.140;5.602;2023-11-21T13:25:43;11.00;99.90
35593;DHT22;64447;52.140;5.602;2023-11-21T13:28:11;11.00;99.90
35593;DHT22;64447;52.140;5.602;2023-11-21T13:30:38;10.90;99.90
35593;DHT22;64447;52.140;5.602;2023-11-21T13:33:06;11.10;99.90
35593;DHT22;64447;52.140;5.602;2023-11-21T13:35:37;11.10;99.90
35593;DHT22;64447;52.140;5.602;2023-11-21T13:38:07;11.00;99.90
35593;DHT22;64447;52.140;5.602;2023-11-21T13:40:33;11.00;99.90
35593;DHT22;64447;52.140;5.602;2023-11-21T13:43:03;10.80;99.90
35593;DHT22;64447;52.140;5.602;2023-11-21T13:45:30;10.90;99.90
35593;DHT22;64447;52.140;5.602;2023-11-21T13:47:56;11.00;99.90
35593;DHT22;64447;52.140;5.602;2023-11-21T13:50:25;10.80;99.90
35593;DHT22;64447;52.140;5.602;2023-11-21T13:52:58;10.90;99.90
35593;DHT22;64447;52.140;5.602;2023-11-21T13:55:28;11.00;99.90
35593;DHT22;64447;52.140;5.602;2023-11-21T13:57:54;11.10;99.90
35593;DHT22;64447;52.140;5.602;2023-11-21T14:00:19;11.00;99.90
35593;DHT22;64447;52.140;5.602;2023-11-21T14:03:04;10.80;99.90
35593;DHT22;64447;52.140;5.602;2023-11-21T14:05:34;10.80;99.90
35593;DHT22;64447;52.140;5.602;2023-11-21T14:08:00;10.80;99.90
35593;DHT22;64447;52.140;5.602;2023-11-21T14:10:32;10.70;99.90
35593;DHT22;64447;52.140;5.602;2023-11-21T14:13:11;10.60;99.90
35593;DHT22;64447;52.140;5.602;2023-11-21T14:15:39;10.50;99.90
35593;DHT22;64447;52.140;5.602;2023-11-21T14:18:08;10.60;99.90
35593;DHT22;64447;52.140;5.602;2023-11-21T14:20:39;10.40;99.90
35593;DHT22;64447;52.140;5.602;2023-11-21T14:23:05;10.50;99.90
35593;DHT22;64447;52.140;5.602;2023-11-21T14:25:35;10.40;99.90
35593;DHT22;64447;52.140;5.602;2023-11-21T14:28:05;10.70;99.90
35593;DHT22;64447;52.140;5.602;2023-11-21T14:30:34;10.30;99.90
35593;DHT22;64447;52.140;5.602;2023-11-21T14:33:02;10.40;99.90
35593;DHT22;64447;52.140;5.602;2023-11-21T14:35:27;10.40;99.90
35593;DHT22;64447;52.140;5.602;2023-11-21T14:37:55;10.20;99.90
35593;DHT22;64447;52.140;5.602;2023-11-21T14:40:22;10.40;99.90
35593;DHT22;64447;52.140;5.602;2023-11-21T14:42:50;10.40;99.90
35593;DHT22;64447;52.140;5.602;2023-11-21T14:45:19;10.50;99.90
35593;DHT22;64447;52.140;5.602;2023-11-21T14:47:46;10.20;99.90
35593;DHT22;64447;52.140;5.602;2023-11-21T14:50:21;10.20;99.90
35593;DHT22;64447;52.140;5.602;2023-11-21T14:53:06;10.10;99.90
35593;DHT22;64447;52.140;5.602;2023-11-21T14:55:35;10.00;99.90
35593;DHT22;64447;52.140;5.602;2023-11-21T14:58:16;10.00;99.90
35593;DHT22;64447;52.140;5.602;2023-11-21T15:01:00;9.80;99.90
35593;DHT22;64447;52.140;5.602;2023-11-21T15:03:27;9.80;99.90
35593;DHT22;64447;52.140;5.602;2023-11-21T15:06:09;9.60;99.90
35593;DHT22;64447;52.140;5.602;2023-11-21T15:08:49;9.60;99.90
35593;DHT22;64447;52.140;5.602;2023-11-21T15:11:20;9.70;99.90
35593;DHT22;64447;52.140;5.602;2023-11-21T15:13:50;9.70;99.90
35593;DHT22;64447;52.140;5.602;2023-11-21T15:16:18;9.70;99.90
35593;DHT22;64447;52.140;5.602;2023-11-21T15:18:44;9.80;99.90
35593;DHT22;64447;52.140;5.602;2023-11-21T15:21:09;9.60;99.90
35593;DHT22;64447;52.140;5.602;2023-11-21T15:23:38;9.80;99.90
35593;DHT22;64447;52.140;5.602;2023-11-21T15:26:04;9.80;99.90
35593;DHT22;64447;52.140;5.602;2023-11-21T15:28:30;9.80;99.90
35593;DHT22;64447;52.140;5.602;2023-11-21T15:30:58;9.70;99.90
35593;DHT22;64447;52.140;5.602;2023-11-21T15:33:23;9.60;99.90
35593;DHT22;64447;52.140;5.602;2023-11-21T15:35:49;9.60;99.90
35593;DHT22;64447;52.140;5.602;2023-11-21T15:38:15;9.60;99.90
35593;DHT22;64447;52.140;5.602;2023-11-21T15:40:41;9.60;99.90
35593;DHT22;64447;52.140;5.602;2023-11-21T15:43:08;9.50;99.90
35593;DHT22;64447;52.140;5.602;2023-11-21T15:45:34;9.30;99.90
35593;DHT22;64447;52.140;5.602;2023-11-21T15:47:59;9.50;99.90
35593;DHT22;64447;52.140;5.602;2023-11-21T15:50:26;9.20;99.90
35593;DHT22;64447;52.140;5.602;2023-11-21T15:52:52;9.20;99.90
35593;DHT22;64447;52.140;5.602;2023-11-21T15:55:19;9.30;99.90
35593;DHT22;64447;52.140;5.602;2023-11-21T15:57:45;9.20;99.90
35593;DHT22;64447;52.140;5.602;2023-11-21T16:00:11;9.20;99.90